createdAt,value
2022-11-04T00:01:52.576Z,96422.94
2022-11-04T00:04:23.848Z,96423.75
2022-11-04T00:06:54.121Z,96415.97
2022-11-04T00:09:24.958Z,96418.00
2022-11-04T00:12:11.051Z,96411.03
2022-11-04T00:14:39.654Z,96409.59
2022-11-04T00:17:20.380Z,96450.63
2022-11-04T00:20:08.337Z,96540.38
2022-11-04T00:22:56.140Z,96516.81
2022-11-04T00:25:42.703Z,96532.94
2022-11-04T00:28:31.748Z,96535.59
2022-11-04T00:31:22.088Z,96533.59
2022-11-04T00:33:51.084Z,96539.72
2022-11-04T00:36:20.321Z,96554.50
2022-11-04T00:38:49.961Z,96553.97
2022-11-04T00:41:27.439Z,96558.06
2022-11-04T00:43:58.635Z,96560.38
2022-11-04T00:46:27.338Z,96563.63
2022-11-04T00:48:55.741Z,96566.13
2022-11-04T00:51:24.142Z,96570.25
2022-11-04T00:53:54.016Z,96582.72
2022-11-04T00:56:22.397Z,96586.03
2022-11-04T00:58:50.658Z,96589.47
2022-11-04T01:01:20.296Z,96595.44
2022-11-04T01:03:51.463Z,96602.59
2022-11-04T01:06:21.787Z,96598.94
2022-11-04T01:08:50.844Z,96621.84
2022-11-04T01:11:20.403Z,96618.00
2022-11-04T01:13:52.174Z,96621.50
2022-11-04T01:16:21.510Z,96616.81
2022-11-04T01:18:50.216Z,96616.81
2022-11-04T01:21:19.323Z,96622.56
2022-11-04T01:23:48.045Z,96624.25
2022-11-04T01:26:21.133Z,96625.88
2022-11-04T01:28:49.919Z,96621.22
2022-11-04T01:31:21.531Z,96621.81
2022-11-04T01:33:50.373Z,96625.13
2022-11-04T01:36:19.812Z,96626.59
2022-11-04T01:38:48.319Z,96628.88
2022-11-04T01:41:21.918Z,96640.53
2022-11-04T01:43:52.888Z,96639.34
2022-11-04T01:46:30.965Z,96639.34
2022-11-04T01:49:05.087Z,96653.84
2022-11-04T01:51:36.341Z,96650.81
2022-11-04T01:54:06.380Z,96649.78
2022-11-04T01:56:37.171Z,96660.25
2022-11-04T01:59:10.320Z,96661.06
2022-11-04T02:01:38.655Z,96674.00
2022-11-04T02:04:25.190Z,96664.38
2022-11-04T02:06:57.078Z,96664.38
2022-11-04T02:09:28.468Z,96671.16
2022-11-04T02:12:15.919Z,96673.81
2022-11-04T02:14:46.092Z,96677.50
2022-11-04T02:17:33.537Z,96671.97
2022-11-04T02:20:31.243Z,96677.28
2022-11-04T02:23:35.445Z,96675.47
2022-11-04T02:26:48.853Z,96673.63
2022-11-04T02:29:31.864Z,96671.97
2022-11-04T02:32:10.094Z,96673.44
2022-11-04T02:34:51.738Z,96675.94
2022-11-04T02:37:31.892Z,96668.75
2022-11-04T02:40:10.149Z,96666.28
2022-11-04T02:42:44.073Z,96658.09
2022-11-04T02:45:21.748Z,96672.06
2022-11-04T02:47:56.552Z,96668.56
2022-11-04T02:50:34.118Z,96662.25
2022-11-04T02:53:10.418Z,96655.25
2022-11-04T02:55:44.668Z,96657.72
2022-11-04T02:58:18.446Z,96656.09
2022-11-04T03:00:49.496Z,96650.31
2022-11-04T03:03:23.888Z,96653.81
2022-11-04T03:05:56.307Z,96663.63
2022-11-04T03:08:30.885Z,96659.97
2022-11-04T03:11:05.237Z,96658.28
2022-11-04T03:13:38.774Z,96670.59
2022-11-04T03:16:14.048Z,96674.25
2022-11-04T03:18:51.626Z,96671.78
2022-11-04T03:21:21.805Z,96681.44
2022-11-04T03:23:50.142Z,96684.91
2022-11-04T03:26:25.157Z,96679.56
2022-11-04T03:29:06.887Z,96684.91
2022-11-04T03:31:43.826Z,96690.22
2022-11-04T03:34:12.330Z,96691.88
2022-11-04T03:36:40.664Z,96690.03
2022-11-04T03:39:08.901Z,96691.72
2022-11-04T03:41:44.121Z,96697.81
2022-11-04T03:44:12.636Z,96695.81
2022-11-04T03:46:42.263Z,96689.66
2022-11-04T03:49:11.626Z,96690.50
2022-11-04T03:51:39.893Z,96700.97
2022-11-04T03:54:09.392Z,96692.13
2022-11-04T03:57:10.818Z,96694.00
2022-11-04T04:00:01.098Z,96691.53
2022-11-04T04:02:48.100Z,96702.97
2022-11-04T04:05:22.533Z,96703.81
2022-11-04T04:08:00.231Z,96694.00
2022-11-04T04:10:40.838Z,96689.47
2022-11-04T04:13:20.689Z,96689.47
2022-11-04T04:15:54.781Z,96686.63
2022-11-04T04:18:33.130Z,96681.31
2022-11-04T04:21:07.157Z,96680.31
2022-11-04T04:23:54.733Z,96680.31
2022-11-04T04:26:43.050Z,96666.19
2022-11-04T04:29:12.195Z,96668.00
2022-11-04T04:31:50.966Z,96668.19
2022-11-04T04:34:24.104Z,96665.53
2022-11-04T04:37:00.186Z,96670.03
2022-11-04T04:39:54.539Z,96664.91
2022-11-04T04:42:40.528Z,96682.50
2022-11-04T04:45:10.920Z,96673.88
2022-11-04T04:47:46.587Z,96673.88
2022-11-04T04:50:19.094Z,96669.41
2022-11-04T04:52:50.390Z,96671.88
2022-11-04T04:55:19.260Z,96666.56
2022-11-04T04:57:47.673Z,96663.72
2022-11-04T05:00:18.920Z,96663.72
2022-11-04T05:02:47.262Z,96654.88
2022-11-04T05:05:17.952Z,96662.06
2022-11-04T05:07:46.253Z,96662.88
2022-11-04T05:10:17.112Z,96658.56
2022-11-04T05:13:03.483Z,96659.41
2022-11-04T05:15:32.587Z,96657.91
2022-11-04T05:18:04.572Z,96659.78
2022-11-04T05:20:34.993Z,96668.56
2022-11-04T05:23:03.301Z,96655.06
2022-11-04T05:25:31.572Z,96661.22
2022-11-04T05:28:02.305Z,96671.88
2022-11-04T05:30:30.748Z,96669.03
2022-11-04T05:33:03.431Z,96661.88
2022-11-04T05:35:35.544Z,96665.53
2022-11-04T05:38:03.954Z,96671.50
2022-11-04T05:40:32.276Z,96678.66
2022-11-04T05:43:01.130Z,96660.84
2022-11-04T05:45:29.896Z,96657.19
2022-11-04T05:48:02.146Z,96672.34
2022-11-04T05:50:31.364Z,96682.97
2022-11-04T05:53:01.962Z,96683.16
2022-11-04T05:55:30.415Z,96680.88
2022-11-04T05:57:59.303Z,96683.72
2022-11-04T06:00:28.507Z,96686.38
2022-11-04T06:02:58.251Z,96679.56
2022-11-04T06:05:27.069Z,96667.84
2022-11-04T06:07:55.366Z,96674.19
2022-11-04T06:10:25.484Z,96675.59
2022-11-04T06:12:53.825Z,96676.94
2022-11-04T06:15:22.051Z,96680.63
2022-11-04T06:17:50.301Z,96689.63
2022-11-04T06:20:18.713Z,96691.63
2022-11-04T06:22:47.001Z,96694.47
2022-11-04T06:25:15.256Z,96704.28
2022-11-04T06:27:44.881Z,96698.78
2022-11-04T06:30:13.878Z,96694.47
2022-11-04T06:32:42.198Z,96690.78
2022-11-04T06:35:10.770Z,96697.78
2022-11-04T06:37:39.249Z,96688.13
2022-11-04T06:40:09.384Z,96689.81
2022-11-04T06:42:37.692Z,96686.13
2022-11-04T06:45:08.644Z,96689.81
2022-11-04T06:47:36.948Z,96699.59
2022-11-04T06:50:06.138Z,96696.13
2022-11-04T06:52:39.447Z,96692.66
2022-11-04T06:55:11.096Z,96699.78
2022-11-04T06:57:39.316Z,96705.13
2022-11-04T07:00:11.041Z,96697.31
2022-11-04T07:02:39.946Z,96686.69
2022-11-04T07:05:09.270Z,96667.03
2022-11-04T07:07:37.672Z,96665.03
2022-11-04T07:10:07.222Z,96658.88
2022-11-04T07:12:35.467Z,96657.06
2022-11-04T07:15:03.798Z,96650.91
2022-11-04T07:17:33.467Z,96643.75
2022-11-04T07:20:01.712Z,96650.09
2022-11-04T07:22:30.030Z,96664.38
2022-11-04T07:24:58.289Z,96670.72
2022-11-04T07:27:26.515Z,96693.19
2022-11-04T07:29:54.873Z,96711.81
2022-11-04T07:32:23.174Z,96711.16
2022-11-04T07:34:52.789Z,96717.50
2022-11-04T07:37:20.970Z,96715.84
2022-11-04T07:39:49.244Z,96710.06
2022-11-04T07:42:17.515Z,96728.03
2022-11-04T07:44:45.739Z,96726.94
2022-11-04T07:47:14.409Z,96724.66
2022-11-04T07:49:42.642Z,96724.84
2022-11-04T07:52:12.256Z,96737.47
2022-11-04T07:54:40.527Z,96733.78
2022-11-04T07:57:08.744Z,96736.63
2022-11-04T07:59:36.969Z,96743.63
2022-11-04T08:02:05.895Z,96751.78
2022-11-04T08:04:34.165Z,96757.09
2022-11-04T08:07:02.395Z,96758.25
2022-11-04T08:09:32.056Z,96763.78
2022-11-04T08:12:00.301Z,96749.84
2022-11-04T08:14:28.596Z,96742.72
2022-11-04T08:16:56.838Z,96744.03
2022-11-04T08:19:25.131Z,96740.56
2022-11-04T08:21:53.364Z,96739.72
2022-11-04T08:24:21.887Z,96738.09
2022-11-04T08:26:51.490Z,96737.25
2022-11-04T08:29:20.015Z,96733.75
2022-11-04T08:31:48.280Z,96725.78
2022-11-04T08:34:18.311Z,96717.19
2022-11-04T08:36:47.349Z,96711.88
2022-11-04T08:39:15.950Z,96710.84
2022-11-04T08:41:45.505Z,96717.97
2022-11-04T08:44:15.284Z,96721.47
2022-11-04T08:46:46.050Z,96711.88
2022-11-04T08:49:19.472Z,96706.53
2022-11-04T08:51:56.339Z,96705.72
2022-11-04T08:54:24.911Z,96712.84
2022-11-04T08:56:53.235Z,96711.88
2022-11-04T08:59:22.989Z,96716.34
2022-11-04T09:01:51.353Z,96717.19
2022-11-04T09:04:20.471Z,96721.47
2022-11-04T09:06:50.992Z,96722.31
2022-11-04T09:09:20.227Z,96722.13
2022-11-04T09:11:49.393Z,96722.94
2022-11-04T09:14:18.795Z,96717.63
2022-11-04T09:16:48.426Z,96707.81
2022-11-04T09:19:16.666Z,96697.00
2022-11-04T09:21:44.892Z,96702.16
2022-11-04T09:24:13.970Z,96702.16
2022-11-04T09:26:42.347Z,96704.66
2022-11-04T09:29:10.654Z,96689.53
2022-11-04T09:31:39.534Z,96685.69
2022-11-04T09:36:41.690Z,96679.16
2022-11-04T09:39:09.917Z,96666.53
2022-11-04T09:41:58.180Z,96671.00
2022-11-04T09:45:00.033Z,96668.34
2022-11-04T09:47:29.728Z,96668.34
2022-11-04T09:50:00.673Z,96667.16
2022-11-04T09:52:36.178Z,96674.13
2022-11-04T09:55:13.390Z,96680.91
2022-11-04T09:57:42.162Z,96669.25
2022-11-04T10:00:17.183Z,96666.41
2022-11-04T10:02:59.774Z,96660.91
2022-11-04T10:05:57.230Z,96657.06
2022-11-04T10:08:49.035Z,96658.91
2022-11-04T10:11:27.255Z,96666.50
2022-11-04T10:14:17.117Z,96677.63
2022-11-04T10:16:58.886Z,96672.91
2022-11-04T10:19:42.236Z,96670.91
2022-11-04T10:22:18.111Z,96672.19
2022-11-04T10:24:59.531Z,96667.50
2022-11-04T10:27:31.517Z,96656.88
2022-11-04T10:30:03.705Z,96659.34
2022-11-04T10:32:37.104Z,96646.88
2022-11-04T10:35:16.492Z,96654.84
2022-11-04T10:37:44.942Z,96657.34
2022-11-04T10:40:25.225Z,96651.19
2022-11-04T10:42:54.886Z,96660.81
2022-11-04T10:45:38.677Z,96659.16
2022-11-04T10:48:14.326Z,96656.50
2022-11-04T10:50:52.951Z,96647.50
2022-11-04T10:53:25.429Z,96640.53
2022-11-04T10:56:04.205Z,96640.53
2022-11-04T10:58:36.684Z,96624.56
2022-11-04T11:01:27.170Z,96638.91
2022-11-04T11:03:56.214Z,96637.69
2022-11-04T11:06:30.824Z,96632.38
2022-11-04T11:09:04.113Z,96630.38
2022-11-04T11:11:47.513Z,96625.03
2022-11-04T11:14:32.937Z,96614.41
2022-11-04T11:17:23.915Z,96608.06
2022-11-04T11:19:59.071Z,96605.59
2022-11-04T11:22:39.623Z,96608.06
2022-11-04T11:25:26.998Z,96602.28
2022-11-04T11:27:59.489Z,96613.09
2022-11-04T11:30:32.010Z,96613.47
2022-11-04T11:33:04.985Z,96599.38
2022-11-04T11:35:41.439Z,96598.53
2022-11-04T11:38:20.963Z,96602.22
2022-11-04T11:41:18.790Z,96613.03
2022-11-04T11:43:47.290Z,96622.00
2022-11-04T11:46:22.569Z,96628.34
2022-11-04T11:48:54.171Z,96618.75
2022-11-04T11:51:32.070Z,96609.28
2022-11-04T11:54:17.749Z,96610.28
2022-11-04T11:57:12.753Z,96610.28
2022-11-04T12:02:44.483Z,96616.16
2022-11-04T12:11:20.267Z,96640.47
2022-11-04T12:13:54.453Z,96652.50
2022-11-04T12:16:35.442Z,96659.44
2022-11-04T12:19:40.436Z,96667.97
2022-11-04T12:22:18.977Z,96661.81
2022-11-04T12:24:56.320Z,96647.25
2022-11-04T12:27:34.746Z,96648.91
2022-11-04T12:30:10.412Z,96643.41
2022-11-04T12:33:05.511Z,96644.41
2022-11-04T12:35:51.489Z,96652.41
2022-11-04T12:38:40.817Z,96641.75
2022-11-04T12:41:41.842Z,96633.97
2022-11-04T12:44:18.751Z,96644.59
2022-11-04T12:47:00.010Z,96651.56
2022-11-04T12:50:05.582Z,96656.88
2022-11-04T12:52:52.527Z,96656.06
2022-11-04T12:55:42.571Z,96660.19
2022-11-04T12:58:31.133Z,96660.56
2022-11-04T13:01:03.706Z,96668.16
2022-11-04T13:03:41.305Z,96667.31
2022-11-04T13:06:17.465Z,96671.66
2022-11-04T13:08:51.880Z,96677.72
2022-11-04T13:11:26.088Z,96685.50
2022-11-04T13:14:04.966Z,96686.13
2022-11-04T13:16:38.929Z,96692.47
2022-11-04T13:19:15.860Z,96694.09
2022-11-04T13:21:45.765Z,96696.75
2022-11-04T13:24:23.631Z,96691.63
2022-11-04T13:26:53.496Z,96696.75
2022-11-04T13:29:25.743Z,96697.59
2022-11-04T13:32:03.001Z,96698.44
2022-11-04T13:34:43.371Z,96702.72
2022-11-04T13:37:26.109Z,96700.44
2022-11-04T13:39:59.597Z,96697.13
2022-11-04T13:43:16.283Z,96706.94
2022-11-04T13:45:51.255Z,96707.31
2022-11-04T13:48:24.435Z,96703.81
2022-11-04T13:51:02.956Z,96698.50
2022-11-04T13:53:48.547Z,96702.16
2022-11-04T13:56:34.659Z,96693.50
2022-11-04T13:59:09.080Z,96701.50
2022-11-04T14:01:37.469Z,96705.81
2022-11-04T14:04:29.636Z,96709.28
2022-11-04T14:07:01.748Z,96712.78
2022-11-04T14:10:01.684Z,96709.66
2022-11-04T14:12:36.131Z,96699.56
2022-11-04T14:16:01.771Z,96703.22
2022-11-04T14:18:32.683Z,96706.06
2022-11-04T14:21:08.310Z,96714.22
2022-11-04T14:23:38.523Z,96714.22
2022-11-04T14:26:10.763Z,96721.38
2022-11-04T14:28:41.748Z,96719.72
2022-11-04T14:31:17.117Z,96723.22
2022-11-04T14:33:56.534Z,96730.53
2022-11-04T14:36:34.997Z,96728.72
2022-11-04T14:39:22.057Z,96733.38
2022-11-04T14:41:58.579Z,96737.84
2022-11-04T14:44:37.538Z,96743.16
2022-11-04T14:47:19.574Z,96743.16
2022-11-04T14:49:50.907Z,96751.97
2022-11-04T14:52:24.787Z,96748.47
2022-11-04T14:54:59.661Z,96751.97
2022-11-04T14:57:37.778Z,96758.31
2022-11-04T15:00:31.502Z,96765.44
2022-11-04T15:03:41.118Z,96767.44
2022-11-04T15:06:06.572Z,96771.13
2022-11-04T15:08:37.246Z,96767.63
2022-11-04T15:11:15.521Z,96770.09
2022-11-04T15:13:50.289Z,96776.25
2022-11-04T15:16:22.892Z,96784.03
2022-11-04T15:18:52.522Z,96778.72
2022-11-04T15:21:21.214Z,96779.56
2022-11-04T15:23:53.327Z,96776.91
2022-11-04T15:26:29.416Z,96775.88
2022-11-04T15:29:02.266Z,96771.41
2022-11-04T15:31:32.617Z,96774.06
2022-11-04T15:34:04.279Z,96775.06
2022-11-04T15:36:36.408Z,96783.88
2022-11-04T15:39:12.259Z,96781.38
2022-11-04T15:41:59.792Z,96780.56
2022-11-04T15:44:32.781Z,96781.09
2022-11-04T15:47:03.569Z,96789.06
2022-11-04T15:49:34.897Z,96789.06
2022-11-04T15:52:08.661Z,96792.56
2022-11-04T15:54:39.199Z,96792.72
2022-11-04T15:57:15.754Z,96797.03
2022-11-04T15:59:53.844Z,96792.91
2022-11-04T16:02:28.158Z,96794.72
2022-11-04T16:05:09.206Z,96801.06
2022-11-04T16:07:39.720Z,96805.34
2022-11-04T16:10:31.844Z,96804.72
2022-11-04T16:13:02.269Z,96804.72
2022-11-04T16:15:39.103Z,96805.72
2022-11-04T16:18:22.382Z,96814.69
2022-11-04T16:20:53.151Z,96817.34
2022-11-04T16:23:25.851Z,96823.69
2022-11-04T16:25:59.740Z,96821.84
2022-11-04T16:28:31.585Z,96818.38
2022-11-04T16:31:03.622Z,96826.34
2022-11-04T16:33:31.987Z,96825.50
2022-11-04T16:36:00.192Z,96829.00
2022-11-04T16:38:28.439Z,96825.50
2022-11-04T16:40:56.694Z,96827.31
2022-11-04T16:43:24.924Z,96828.34
2022-11-04T16:45:54.225Z,96831.00
2022-11-04T16:48:24.711Z,96831.00
2022-11-04T16:50:53.076Z,96844.28
2022-11-04T16:53:21.359Z,96842.28
2022-11-04T16:55:50.069Z,96838.78
2022-11-04T16:58:20.018Z,96838.13
2022-11-04T17:00:48.367Z,96847.94
2022-11-04T17:03:22.180Z,96852.59
2022-11-04T17:05:53.954Z,96857.44
2022-11-04T17:08:22.250Z,96858.00
2022-11-04T17:10:50.806Z,96863.16
2022-11-04T17:13:19.165Z,96869.00
2022-11-04T17:15:47.541Z,96863.19
2022-11-04T17:18:17.670Z,96863.72
2022-11-04T17:20:49.468Z,96871.06
2022-11-04T17:23:31.491Z,96873.03
2022-11-04T17:26:00.304Z,96886.66
2022-11-04T17:28:28.734Z,96881.53
2022-11-04T17:30:57.062Z,96882.53
2022-11-04T17:33:25.394Z,96886.00
2022-11-04T17:35:53.896Z,96888.03
2022-11-04T17:38:23.849Z,96885.53
2022-11-04T17:41:09.411Z,96896.97
2022-11-04T17:43:54.861Z,96890.69
2022-11-04T17:46:35.532Z,96893.50
2022-11-04T17:49:07.946Z,96892.84
2022-11-04T17:51:37.376Z,96887.53
2022-11-04T17:54:07.793Z,96882.41
2022-11-04T17:56:36.422Z,96886.34
2022-11-04T17:59:05.713Z,96887.53
2022-11-04T18:01:36.542Z,96884.22
2022-11-04T18:04:05.473Z,96879.91
2022-11-04T18:06:39.522Z,96881.91
2022-11-04T18:09:11.027Z,96880.44
2022-11-04T18:11:56.784Z,96873.47
2022-11-04T18:14:25.444Z,96882.59
2022-11-04T18:16:54.013Z,96886.25
2022-11-04T18:19:24.425Z,96887.59
2022-11-04T18:21:52.905Z,96893.44
2022-11-04T18:24:22.684Z,96904.38
2022-11-04T18:26:51.301Z,96900.44
2022-11-04T18:29:21.657Z,96904.41
2022-11-04T18:31:50.072Z,96910.88
2022-11-04T18:34:20.013Z,96908.72
2022-11-04T18:36:49.403Z,96910.53
2022-11-04T18:39:19.958Z,96920.50
2022-11-04T18:41:49.694Z,96919.66
2022-11-04T18:44:20.791Z,96926.78
2022-11-04T18:46:49.700Z,96932.09
2022-11-04T18:49:18.861Z,96938.22
2022-11-04T18:51:47.212Z,96939.88
2022-11-04T18:54:16.224Z,96936.41
2022-11-04T18:56:44.966Z,96937.22
2022-11-04T18:59:16.775Z,96947.03
2022-11-04T19:01:46.203Z,96941.72
2022-11-04T19:04:15.173Z,96955.97
2022-11-04T19:06:45.632Z,96951.50
2022-11-04T19:09:45.957Z,96959.63
2022-11-04T19:12:24.142Z,96967.75
2022-11-04T19:14:53.929Z,96977.69
2022-11-04T19:17:22.920Z,96977.69
2022-11-04T19:19:51.674Z,96969.09
2022-11-04T19:22:19.996Z,96977.22
2022-11-04T19:24:48.350Z,96986.00
2022-11-04T19:27:17.902Z,96988.81
2022-11-04T19:29:46.474Z,96988.81
2022-11-04T19:32:16.226Z,96992.63
2022-11-04T19:34:44.822Z,96991.63
2022-11-04T19:37:13.584Z,97001.44
2022-11-04T19:39:42.120Z,97004.25
2022-11-04T19:42:30.257Z,97010.53
2022-11-04T19:44:58.583Z,97019.50
2022-11-04T19:47:28.168Z,97021.31
2022-11-04T19:49:56.692Z,97018.66
2022-11-04T19:52:25.041Z,97033.78
2022-11-04T19:54:53.297Z,97029.44
2022-11-04T19:57:21.552Z,97033.09
2022-11-04T19:59:51.816Z,97038.41
2022-11-04T20:02:20.461Z,97039.25
2022-11-04T20:04:50.970Z,97041.06
2022-11-04T20:07:19.470Z,97039.41
2022-11-04T20:09:47.786Z,97046.34
2022-11-04T20:12:33.591Z,97048.19
2022-11-04T20:15:02.149Z,97057.97
2022-11-04T20:17:32.666Z,97058.13
2022-11-04T20:20:02.341Z,97056.66
2022-11-04T20:22:30.557Z,97064.63
2022-11-04T20:24:58.821Z,97065.59
2022-11-04T20:27:27.135Z,97071.72
2022-11-04T20:29:55.347Z,97071.06
2022-11-04T20:32:23.607Z,97084.16
2022-11-04T20:34:51.822Z,97087.81
2022-11-04T20:37:21.491Z,97078.19
2022-11-04T20:39:49.769Z,97088.81
2022-11-04T20:42:18.200Z,97085.16
2022-11-04T20:44:46.547Z,97096.94
2022-11-04T20:47:16.371Z,97094.44
2022-11-04T20:49:45.102Z,97087.47
2022-11-04T20:52:13.301Z,97089.31
2022-11-04T20:54:43.041Z,97089.47
2022-11-04T20:57:11.373Z,97090.44
2022-11-04T20:59:39.692Z,97095.75
2022-11-04T21:02:08.763Z,97093.25
2022-11-04T21:04:37.342Z,97100.22
2022-11-04T21:07:06.872Z,97099.41
2022-11-04T21:09:35.310Z,97101.22
2022-11-04T21:12:05.898Z,97101.38
2022-11-04T21:14:35.201Z,97102.22
2022-11-04T21:17:03.628Z,97103.22
2022-11-04T21:19:32.390Z,97098.22
2022-11-04T21:22:00.721Z,97096.72
2022-11-04T21:24:29.120Z,97101.38
2022-11-04T21:26:57.499Z,97111.28
2022-11-04T21:29:27.358Z,97123.72
2022-11-04T21:31:55.654Z,97128.38
2022-11-04T21:34:24.045Z,97134.63
2022-11-04T21:36:53.382Z,97137.47
2022-11-04T21:39:22.927Z,97136.66
2022-11-04T21:41:51.266Z,97133.31
2022-11-04T21:44:19.531Z,97131.50
2022-11-04T21:46:52.498Z,97131.81
2022-11-04T21:49:21.039Z,97121.88
2022-11-04T21:51:49.361Z,97128.19
2022-11-04T21:54:17.732Z,97133.47
2022-11-04T21:56:46.666Z,97132.63
2022-11-04T21:59:18.285Z,97132.78
2022-11-04T22:01:48.525Z,97135.44
2022-11-04T22:04:16.881Z,97140.09
2022-11-04T22:06:45.475Z,97139.41
2022-11-04T22:09:13.841Z,97140.41
2022-11-04T22:11:42.169Z,97145.88
2022-11-04T22:14:13.155Z,97148.69
2022-11-04T22:16:41.825Z,97154.84
2022-11-04T22:19:13.826Z,97151.66
2022-11-04T22:21:45.698Z,97150.00
2022-11-04T22:24:16.072Z,97150.00
2022-11-04T22:26:45.243Z,97146.69
2022-11-04T22:29:13.561Z,97150.31
2022-11-04T22:31:44.722Z,97157.44
2022-11-04T22:34:14.448Z,97161.09
2022-11-04T22:36:42.803Z,97164.53
2022-11-04T22:39:16.521Z,97164.53
2022-11-04T22:41:46.282Z,97162.75
2022-11-04T22:44:14.971Z,97162.75
2022-11-04T22:46:43.794Z,97165.38
2022-11-04T22:49:14.511Z,97157.44
2022-11-04T22:51:43.119Z,97175.16
2022-11-04T22:54:11.757Z,97168.19
2022-11-04T22:56:40.164Z,97173.50
2022-11-04T22:59:08.627Z,97166.53
2022-11-04T23:01:37.179Z,97169.19
2022-11-04T23:04:06.542Z,97156.91
2022-11-04T23:06:36.284Z,97153.47
2022-11-04T23:09:05.025Z,97164.88
2022-11-04T23:11:52.036Z,97168.50
2022-11-04T23:14:40.270Z,97159.88
2022-11-04T23:17:34.297Z,97168.00
2022-11-04T23:20:03.059Z,97163.84
2022-11-04T23:22:50.205Z,97164.69
2022-11-04T23:25:19.507Z,97163.00
2022-11-04T23:28:08.465Z,97161.19
2022-11-04T23:30:39.742Z,97164.69
2022-11-04T23:33:10.938Z,97165.50
2022-11-04T23:36:00.587Z,97166.50
2022-11-04T23:38:30.535Z,97160.50
2022-11-04T23:41:33.483Z,97167.66
2022-11-04T23:44:01.809Z,97165.97
2022-11-04T23:46:47.489Z,97170.31
2022-11-04T23:49:33.405Z,97175.75
2022-11-04T23:52:18.945Z,97172.44
2022-11-04T23:55:06.212Z,97179.53
2022-11-04T23:57:51.758Z,97176.06
